createdAt,value
2018-02-11T00:00:59.083Z,79.88
2018-02-11T00:01:59.057Z,79.69
2018-02-11T00:02:59.033Z,79.69
2018-02-11T00:03:59.010Z,79.79
2018-02-11T00:04:58.988Z,79.66
2018-02-11T00:05:58.960Z,79.60
2018-02-11T00:06:58.935Z,79.88
2018-02-11T00:07:58.913Z,79.88
2018-02-11T00:08:58.885Z,80.07
2018-02-11T00:09:58.860Z,80.26
2018-02-11T00:10:58.867Z,79.79
2018-02-11T00:11:58.809Z,80.64
2018-02-11T00:12:58.786Z,80.64
2018-02-11T00:13:58.762Z,81.26
2018-02-11T00:14:58.733Z,81.02
2018-02-11T00:15:58.712Z,81.02
2018-02-11T00:16:58.689Z,81.40
2018-02-11T00:17:58.666Z,82.02
2018-02-11T00:18:58.656Z,81.68
2018-02-11T00:19:58.610Z,81.55
2018-02-11T00:20:58.589Z,81.87
2018-02-11T00:21:58.564Z,82.15
2018-02-11T00:22:58.538Z,82.63
2018-02-11T00:23:58.514Z,82.59
2018-02-11T00:24:58.487Z,83.06
2018-02-11T00:25:58.461Z,82.68
2018-02-11T00:26:58.443Z,83.44
2018-02-11T00:27:58.414Z,83.82
2018-02-11T00:28:58.389Z,84.20
2018-02-11T00:29:58.369Z,85.52
2018-02-11T00:30:58.342Z,86.09
2018-02-11T00:31:58.316Z,87.32
2018-02-11T00:32:58.291Z,87.41
2018-02-11T00:33:58.266Z,87.98
2018-02-11T00:34:58.241Z,88.07
2018-02-11T00:35:58.220Z,88.83
2018-02-11T00:36:58.187Z,89.69
2018-02-11T00:37:58.168Z,89.87
2018-02-11T00:38:58.146Z,89.87
2018-02-11T00:39:58.118Z,90.34
2018-02-11T00:40:58.092Z,90.25
2018-02-11T00:41:58.071Z,91.39
2018-02-11T00:42:58.042Z,91.77
2018-02-11T00:43:58.019Z,92.43
2018-02-11T00:44:57.995Z,93.18
2018-02-11T00:45:57.969Z,93.09
2018-02-11T00:46:57.946Z,94.23
2018-02-11T00:47:57.918Z,93.94
2018-02-11T00:48:57.891Z,95.55
2018-02-11T00:49:57.862Z,96.02
2018-02-11T00:50:57.840Z,96.21
2018-02-11T00:51:57.818Z,95.74
2018-02-11T00:52:57.792Z,96.31
2018-02-11T00:53:57.767Z,96.92
2018-02-11T00:54:57.742Z,96.69
2018-02-11T00:55:57.722Z,96.97
2018-02-11T00:56:57.692Z,96.92
2018-02-11T00:57:57.665Z,96.83
2018-02-11T00:58:57.643Z,96.83
2018-02-11T00:59:57.619Z,97.34
2018-02-11T01:00:57.589Z,97.20
2018-02-11T01:01:57.565Z,97.39
2018-02-11T01:02:57.647Z,97.67
2018-02-11T01:03:57.516Z,97.49
2018-02-11T01:04:57.489Z,97.72
2018-02-11T01:05:57.467Z,98.29
2018-02-11T01:06:57.440Z,98.86
2018-02-11T01:07:57.419Z,98.67
2018-02-11T01:08:57.389Z,98.52
2018-02-11T01:09:57.363Z,98.52
2018-02-11T01:10:57.339Z,98.52
2018-02-11T01:11:57.312Z,98.52
2018-02-11T01:12:57.281Z,98.05
2018-02-11T01:13:57.262Z,98.14
2018-02-11T01:14:57.237Z,98.62
2018-02-11T01:15:57.257Z,98.62
2018-02-11T01:16:57.190Z,99.00
2018-02-11T01:17:57.159Z,99.00
2018-02-11T01:18:57.134Z,99.00
2018-02-11T01:19:57.110Z,98.90
2018-02-11T01:20:57.085Z,99.19
2018-02-11T01:21:57.060Z,99.47
2018-02-11T01:22:57.034Z,99.47
2018-02-11T01:23:57.010Z,99.19
2018-02-11T01:24:56.983Z,99.85
2018-02-11T01:25:56.957Z,99.85
2018-02-11T01:26:56.932Z,99.09
2018-02-11T01:27:56.909Z,99.47
2018-02-11T01:28:56.883Z,99.47
2018-02-11T01:29:56.852Z,99.57
2018-02-11T01:30:56.830Z,99.57
2018-02-11T01:31:56.800Z,99.38
2018-02-11T01:32:56.779Z,99.99
2018-02-11T01:33:56.749Z,99.66
2018-02-11T01:34:56.728Z,99.76
2018-02-11T01:35:56.703Z,99.57
2018-02-11T01:36:56.673Z,99.76
2018-02-11T01:37:56.651Z,99.66
2018-02-11T01:38:56.627Z,99.76
2018-02-11T01:39:56.636Z,99.99
2018-02-11T01:40:56.573Z,99.38
2018-02-11T01:41:56.550Z,99.99
2018-02-11T01:42:56.524Z,99.99
2018-02-11T01:43:56.497Z,99.99
2018-02-11T01:44:56.471Z,99.99
2018-02-11T01:45:56.448Z,99.99
2018-02-11T01:46:56.428Z,99.99
2018-02-11T01:47:56.393Z,99.99
2018-02-11T01:48:56.369Z,99.99
2018-02-11T01:49:56.343Z,99.99
2018-02-11T01:50:56.319Z,99.99
2018-02-11T01:51:56.292Z,99.99
2018-02-11T01:52:56.267Z,99.99
2018-02-11T01:53:56.241Z,99.99
2018-02-11T01:54:56.214Z,99.99
2018-02-11T01:55:56.189Z,99.99
2018-02-11T01:56:56.164Z,99.99
2018-02-11T01:57:56.141Z,99.99
2018-02-11T01:58:56.114Z,99.99
2018-02-11T01:59:56.090Z,99.99
2018-02-11T02:00:56.062Z,99.99
2018-02-11T02:01:56.036Z,99.99
2018-02-11T02:02:56.012Z,99.99
2018-02-11T02:03:55.985Z,99.99
2018-02-11T02:04:55.959Z,99.99
2018-02-11T02:05:55.934Z,99.99
2018-02-11T02:06:55.909Z,99.99
2018-02-11T02:07:55.886Z,99.99
2018-02-11T02:08:55.854Z,99.99
2018-02-11T02:09:55.849Z,99.99
2018-02-11T02:10:55.806Z,99.99
2018-02-11T02:11:55.781Z,99.99
2018-02-11T02:12:55.754Z,99.99
2018-02-11T02:13:55.729Z,99.99
2018-02-11T02:14:55.706Z,99.99
2018-02-11T02:15:55.673Z,99.99
2018-02-11T02:16:55.652Z,99.99
2018-02-11T02:17:55.624Z,99.99
2018-02-11T02:18:55.601Z,99.99
2018-02-11T02:19:55.576Z,99.99
2018-02-11T02:20:55.555Z,99.99
2018-02-11T02:21:55.523Z,99.99
2018-02-11T02:22:55.501Z,99.99
2018-02-11T02:23:55.472Z,99.99
2018-02-11T02:24:55.446Z,99.99
2018-02-11T02:25:55.417Z,99.99
2018-02-11T02:26:55.396Z,99.99
2018-02-11T02:27:55.375Z,99.99
2018-02-11T02:28:55.342Z,99.99
2018-02-11T02:29:55.319Z,99.99
2018-02-11T02:30:55.295Z,99.99
2018-02-11T02:31:55.269Z,99.99
2018-02-11T02:32:55.241Z,99.99
2018-02-11T02:33:55.220Z,99.99
2018-02-11T02:34:55.191Z,99.99
2018-02-11T02:35:55.167Z,99.99
2018-02-11T02:36:55.139Z,99.99
2018-02-11T02:37:55.108Z,99.99
2018-02-11T02:38:55.085Z,99.99
2018-02-11T02:39:55.063Z,99.99
2018-02-11T02:40:55.038Z,99.99
2018-02-11T02:41:55.012Z,99.99
2018-02-11T02:42:54.988Z,99.99
2018-02-11T02:43:54.963Z,99.90
2018-02-11T02:44:54.935Z,99.99
2018-02-11T02:45:54.912Z,99.71
2018-02-11T02:46:54.884Z,99.71
2018-02-11T02:47:54.859Z,99.33
2018-02-11T02:48:54.833Z,99.43
2018-02-11T02:49:54.811Z,99.33
2018-02-11T02:50:54.782Z,99.24
2018-02-11T02:51:54.758Z,99.24
2018-02-11T02:52:54.726Z,99.24
2018-02-11T02:53:54.702Z,99.15
2018-02-11T02:54:54.679Z,98.86
2018-02-11T02:55:54.654Z,99.24
2018-02-11T02:56:54.631Z,98.96
2018-02-11T02:57:54.603Z,99.05
2018-02-11T02:58:54.579Z,98.86
2018-02-11T02:59:54.555Z,99.24
2018-02-11T03:00:54.527Z,98.96
2018-02-11T03:01:54.498Z,99.05
2018-02-11T03:02:54.475Z,98.96
2018-02-11T03:03:54.471Z,98.96
2018-02-11T03:04:54.422Z,98.96
2018-02-11T03:05:54.403Z,99.05
2018-02-11T03:06:54.374Z,99.05
2018-02-11T03:07:54.348Z,99.33
2018-02-11T03:08:54.323Z,99.33
2018-02-11T03:09:54.297Z,98.58
2018-02-11T03:10:54.269Z,98.48
2018-02-11T03:11:54.249Z,98.39
2018-02-11T03:12:54.230Z,97.91
2018-02-11T03:13:54.214Z,97.91
2018-02-11T03:14:54.169Z,97.91
2018-02-11T03:15:54.191Z,97.82
2018-02-11T03:16:54.120Z,97.53
2018-02-11T03:17:54.097Z,97.34
2018-02-11T03:18:54.074Z,97.63
2018-02-11T03:19:54.048Z,97.63
2018-02-11T03:20:54.019Z,97.82
2018-02-11T03:21:53.992Z,97.63
2018-02-11T03:22:53.968Z,97.16
2018-02-11T03:23:53.943Z,97.16
2018-02-11T03:24:53.916Z,97.25
2018-02-11T03:25:53.891Z,97.16
2018-02-11T03:26:53.866Z,97.34
2018-02-11T03:27:53.839Z,97.25
2018-02-11T03:28:53.813Z,96.78
2018-02-11T03:29:53.789Z,96.78
2018-02-11T03:30:53.765Z,96.78
2018-02-11T03:31:53.742Z,96.69
2018-02-11T03:32:53.713Z,97.34
2018-02-11T03:33:53.688Z,96.78
2018-02-11T03:34:53.657Z,97.16
2018-02-11T03:35:53.640Z,96.97
2018-02-11T03:36:53.609Z,96.88
2018-02-11T03:37:53.584Z,96.97
2018-02-11T03:38:53.573Z,96.78
2018-02-11T03:39:53.537Z,96.88
2018-02-11T03:40:53.511Z,96.78
2018-02-11T03:41:53.484Z,96.97
2018-02-11T03:42:53.460Z,96.78
2018-02-11T03:43:53.435Z,96.69
2018-02-11T03:44:53.409Z,97.34
2018-02-11T03:45:53.384Z,97.44
2018-02-11T03:46:53.360Z,97.53
2018-02-11T03:47:53.337Z,97.63
2018-02-11T03:48:53.320Z,98.10
2018-02-11T03:49:53.287Z,97.82
2018-02-11T03:50:53.260Z,98.58
2018-02-11T03:51:53.233Z,98.01
2018-02-11T03:52:53.206Z,98.20
2018-02-11T03:53:53.183Z,98.39
2018-02-11T03:54:53.153Z,98.29
2018-02-11T03:55:53.133Z,98.48
2018-02-11T03:56:53.106Z,98.39
2018-02-11T03:57:53.084Z,98.48
2018-02-11T03:58:53.062Z,99.33
2018-02-11T03:59:53.033Z,99.24
2018-02-11T04:00:53.006Z,99.33
2018-02-11T04:01:52.982Z,98.96
2018-02-11T04:02:52.954Z,99.43
2018-02-11T04:03:52.929Z,99.43
2018-02-11T04:04:52.904Z,99.05
2018-02-11T04:05:52.882Z,99.24
2018-02-11T04:06:52.853Z,98.86
2018-02-11T04:07:52.830Z,99.05
2018-02-11T04:08:52.804Z,99.05
2018-02-11T04:09:52.785Z,99.05
2018-02-11T04:10:52.753Z,99.15
2018-02-11T04:11:52.729Z,99.05
2018-02-11T04:12:52.704Z,99.15
2018-02-11T04:13:52.679Z,98.77
2018-02-11T04:14:52.650Z,99.05
2018-02-11T04:15:52.629Z,98.96
2018-02-11T04:16:52.603Z,99.15
2018-02-11T04:17:52.578Z,99.24
2018-02-11T04:18:52.557Z,99.24
2018-02-11T04:19:52.526Z,99.33
2018-02-11T04:20:52.511Z,99.71
2018-02-11T04:21:52.477Z,99.33
2018-02-11T04:22:52.452Z,99.80
2018-02-11T04:23:52.443Z,99.05
2018-02-11T04:24:52.400Z,99.80
2018-02-11T04:25:52.375Z,99.71
2018-02-11T04:26:52.351Z,99.52
2018-02-11T04:27:52.334Z,99.52
2018-02-11T04:28:52.302Z,99.90
2018-02-11T04:29:52.276Z,99.71
2018-02-11T04:30:52.255Z,99.62
2018-02-11T04:31:52.225Z,99.99
2018-02-11T04:32:52.200Z,99.71
2018-02-11T04:33:52.173Z,99.99
2018-02-11T04:34:52.149Z,99.99
2018-02-11T04:35:52.124Z,99.71
2018-02-11T04:36:52.096Z,99.99
2018-02-11T04:37:52.073Z,99.52
2018-02-11T04:38:52.048Z,99.99
2018-02-11T04:39:52.018Z,99.99
2018-02-11T04:40:52.001Z,99.99
2018-02-11T04:41:51.977Z,99.99
2018-02-11T04:42:51.947Z,99.52
2018-02-11T04:43:51.922Z,99.62
2018-02-11T04:44:51.896Z,99.99
2018-02-11T04:45:51.869Z,99.99
2018-02-11T04:46:51.843Z,99.99
2018-02-11T04:47:51.819Z,99.99
2018-02-11T04:48:51.792Z,99.99
2018-02-11T04:49:51.769Z,99.99
2018-02-11T04:50:51.745Z,99.99
2018-02-11T04:51:51.728Z,99.99
2018-02-11T04:52:51.707Z,99.99
2018-02-11T04:53:51.669Z,99.99
2018-02-11T04:54:51.650Z,99.99
2018-02-11T04:55:51.625Z,99.99
2018-02-11T04:56:51.600Z,99.99
2018-02-11T04:57:51.568Z,99.99
2018-02-11T04:58:51.542Z,99.99
2018-02-11T04:59:51.521Z,99.99
2018-02-11T05:00:51.491Z,99.99
2018-02-11T05:01:51.472Z,99.99
2018-02-11T05:02:51.445Z,99.99
2018-02-11T05:03:51.418Z,99.99
2018-02-11T05:04:51.386Z,99.99
2018-02-11T05:05:51.399Z,99.99
2018-02-11T05:06:51.369Z,99.99
2018-02-11T05:07:51.314Z,99.99
2018-02-11T05:08:51.284Z,99.99
2018-02-11T05:09:51.267Z,99.99
2018-02-11T05:10:51.240Z,99.99
2018-02-11T05:11:51.242Z,99.99
2018-02-11T05:12:51.218Z,99.99
2018-02-11T05:13:51.192Z,99.99
2018-02-11T05:14:51.143Z,99.99
2018-02-11T05:15:51.136Z,99.99
2018-02-11T05:16:51.100Z,99.99
2018-02-11T05:17:51.067Z,99.99
2018-02-11T05:18:51.043Z,99.99
2018-02-11T05:19:51.017Z,99.99
2018-02-11T05:20:51.017Z,99.99
2018-02-11T05:21:50.961Z,99.99
2018-02-11T05:22:50.952Z,99.99
2018-02-11T05:23:50.910Z,99.99
2018-02-11T05:24:50.892Z,99.99
2018-02-11T05:25:50.904Z,99.99
2018-02-11T05:26:50.849Z,99.99
2018-02-11T05:27:50.815Z,99.99
2018-02-11T05:28:50.784Z,99.99
2018-02-11T05:29:50.766Z,99.99
2018-02-11T05:30:50.732Z,99.99
2018-02-11T05:31:50.714Z,99.99
2018-02-11T05:32:50.681Z,99.99
2018-02-11T05:33:50.659Z,99.99
2018-02-11T05:34:50.633Z,99.99
2018-02-11T05:35:50.644Z,99.99
2018-02-11T05:36:50.608Z,99.99
2018-02-11T05:37:50.562Z,99.99
2018-02-11T05:38:50.538Z,99.99
2018-02-11T05:39:50.512Z,99.99
2018-02-11T05:40:50.500Z,99.99
2018-02-11T05:41:50.461Z,99.99
2018-02-11T05:42:50.437Z,99.99
2018-02-11T05:43:50.412Z,99.99
2018-02-11T05:44:50.386Z,99.99
2018-02-11T05:45:50.362Z,99.99
2018-02-11T05:46:50.335Z,99.99
2018-02-11T05:47:50.314Z,99.99
2018-02-11T05:48:50.284Z,99.99
2018-02-11T05:49:50.261Z,99.99
2018-02-11T05:50:50.244Z,99.99
2018-02-11T05:51:50.220Z,99.99
2018-02-11T05:52:50.180Z,99.99
2018-02-11T05:53:50.160Z,99.99
2018-02-11T05:54:50.136Z,99.99
2018-02-11T05:55:50.112Z,99.99
2018-02-11T05:56:50.085Z,99.99
2018-02-11T05:57:50.060Z,99.99
2018-02-11T05:58:50.051Z,99.99
2018-02-11T05:59:50.010Z,99.99
2018-02-11T06:00:49.985Z,99.99
2018-02-11T06:01:49.958Z,99.99
2018-02-11T06:02:49.938Z,99.99
2018-02-11T06:03:49.916Z,99.99
2018-02-11T06:04:49.884Z,99.99
2018-02-11T06:05:49.859Z,99.99
2018-02-11T06:06:49.830Z,99.99
2018-02-11T06:07:49.813Z,99.99
2018-02-11T06:08:49.789Z,99.99
2018-02-11T06:09:49.757Z,99.99
2018-02-11T06:10:49.734Z,99.99
2018-02-11T06:11:49.708Z,99.99
2018-02-11T06:12:49.686Z,99.99
2018-02-11T06:13:49.659Z,99.99
2018-02-11T06:14:49.635Z,99.99
2018-02-11T06:15:49.609Z,99.99
2018-02-11T06:16:49.583Z,99.99
2018-02-11T06:17:49.558Z,99.99
2018-02-11T06:18:49.534Z,99.99
2018-02-11T06:19:49.510Z,99.99
2018-02-11T06:20:49.484Z,99.99
2018-02-11T06:21:49.461Z,99.99
2018-02-11T06:22:49.435Z,99.99
2018-02-11T06:23:49.409Z,99.99
2018-02-11T06:24:49.382Z,99.99
2018-02-11T06:25:49.358Z,99.99
2018-02-11T06:26:49.334Z,99.99
2018-02-11T06:27:49.308Z,99.99
2018-02-11T06:28:49.283Z,99.99
2018-02-11T06:29:49.260Z,99.99
2018-02-11T06:30:49.233Z,99.99
2018-02-11T06:31:49.207Z,99.99
2018-02-11T06:32:49.184Z,99.99
2018-02-11T06:33:49.160Z,99.99
2018-02-11T06:34:49.134Z,99.99
2018-02-11T06:35:49.108Z,99.99
2018-02-11T06:36:49.084Z,99.99
2018-02-11T06:37:49.058Z,99.99
2018-02-11T06:38:49.032Z,99.99
2018-02-11T06:39:49.008Z,99.99
2018-02-11T06:40:48.983Z,99.99
2018-02-11T06:41:48.960Z,99.99
2018-02-11T06:42:48.937Z,99.99
2018-02-11T06:43:48.906Z,99.99
2018-02-11T06:44:48.886Z,99.99
2018-02-11T06:45:48.857Z,99.99
2018-02-11T06:46:48.838Z,99.99
2018-02-11T06:47:48.854Z,99.99
2018-02-11T06:48:48.784Z,99.99
2018-02-11T06:49:48.757Z,99.99
2018-02-11T06:50:48.733Z,99.99
2018-02-11T06:51:48.716Z,99.99
2018-02-11T06:52:48.690Z,99.99
2018-02-11T06:53:48.657Z,99.99
2018-02-11T06:54:48.633Z,99.99
2018-02-11T06:55:48.608Z,99.99
2018-02-11T06:56:48.578Z,99.99
2018-02-11T06:57:48.558Z,99.99
2018-02-11T06:58:48.533Z,99.99
2018-02-11T06:59:48.507Z,99.99
2018-02-11T07:00:48.482Z,99.99
2018-02-11T07:01:48.461Z,99.99
2018-02-11T07:02:48.432Z,99.99
2018-02-11T07:03:48.405Z,99.99
2018-02-11T07:04:48.381Z,99.99
2018-02-11T07:05:48.354Z,99.99
2018-02-11T07:06:48.336Z,99.99
2018-02-11T07:07:48.308Z,99.99
2018-02-11T07:08:48.281Z,99.99
2018-02-11T07:09:48.257Z,99.99
2018-02-11T07:10:48.232Z,99.99
2018-02-11T07:11:48.207Z,99.99
2018-02-11T07:12:48.183Z,99.99
2018-02-11T07:13:48.159Z,99.99
2018-02-11T07:14:48.133Z,99.99
2018-02-11T07:15:48.108Z,99.99
2018-02-11T07:16:48.081Z,99.99
2018-02-11T07:17:48.058Z,99.99
2018-02-11T07:18:48.032Z,99.99
2018-02-11T07:19:48.008Z,99.99
2018-02-11T07:20:47.984Z,99.99
2018-02-11T07:21:47.959Z,99.99
2018-02-11T07:22:47.931Z,99.99
2018-02-11T07:23:47.908Z,99.99
2018-02-11T07:24:47.883Z,99.99
2018-02-11T07:25:47.858Z,99.99
2018-02-11T07:26:47.831Z,99.99
2018-02-11T07:27:47.812Z,99.99
2018-02-11T07:28:47.785Z,99.99
2018-02-11T07:29:47.761Z,99.99
2018-02-11T07:30:47.734Z,99.99
2018-02-11T07:31:47.711Z,99.99
2018-02-11T07:32:47.685Z,99.99
2018-02-11T07:33:47.660Z,99.99
2018-02-11T07:34:47.637Z,99.99
2018-02-11T07:35:47.614Z,99.99
2018-02-11T07:36:47.586Z,99.99
2018-02-11T07:37:47.561Z,99.99
2018-02-11T07:38:47.541Z,99.99
2018-02-11T07:39:47.511Z,99.99
2018-02-11T07:40:47.489Z,99.99
2018-02-11T07:41:47.463Z,99.99
2018-02-11T07:42:47.437Z,99.99
2018-02-11T07:43:47.417Z,99.99
2018-02-11T07:44:47.392Z,99.99
2018-02-11T07:45:47.365Z,99.99
2018-02-11T07:46:47.340Z,99.99
2018-02-11T07:47:47.321Z,99.99
2018-02-11T07:48:47.291Z,99.99
2018-02-11T07:49:47.266Z,99.99
2018-02-11T07:50:47.270Z,99.99
2018-02-11T07:51:47.216Z,99.99
2018-02-11T07:52:47.191Z,99.99
2018-02-11T07:53:47.169Z,99.99
2018-02-11T07:54:47.143Z,99.99
2018-02-11T07:55:47.117Z,99.99
2018-02-11T07:56:47.094Z,99.99
2018-02-11T07:57:47.068Z,99.99
2018-02-11T07:58:47.046Z,99.99
2018-02-11T07:59:47.021Z,99.99
2018-02-11T08:00:46.997Z,99.99
2018-02-11T08:01:46.971Z,99.99
2018-02-11T08:02:46.946Z,99.99
2018-02-11T08:03:46.921Z,99.99
2018-02-11T08:04:46.897Z,99.99
2018-02-11T08:05:46.869Z,99.99
2018-02-11T08:06:46.847Z,99.99
2018-02-11T08:07:46.822Z,99.99
2018-02-11T08:08:46.798Z,99.99
2018-02-11T08:09:46.777Z,99.99
2018-02-11T08:10:46.751Z,99.99
2018-02-11T08:11:46.728Z,99.99
2018-02-11T08:12:46.701Z,99.99
2018-02-11T08:13:46.680Z,99.99
2018-02-11T08:14:46.651Z,99.99
2018-02-11T08:15:46.629Z,99.99
2018-02-11T08:16:46.603Z,99.99
2018-02-11T08:17:46.581Z,99.99
2018-02-11T08:18:46.555Z,99.99
2018-02-11T08:19:46.533Z,99.99
2018-02-11T08:20:46.508Z,99.99
2018-02-11T08:21:46.487Z,99.99
2018-02-11T08:22:46.465Z,99.99
2018-02-11T08:23:46.435Z,99.99
2018-02-11T08:24:46.408Z,99.99
2018-02-11T08:25:46.385Z,99.99
2018-02-11T08:26:46.360Z,99.99
2018-02-11T08:27:46.336Z,99.99
2018-02-11T08:28:46.311Z,99.99
2018-02-11T08:29:46.288Z,99.99
2018-02-11T08:30:46.264Z,99.99
2018-02-11T08:31:46.239Z,99.99
2018-02-11T08:32:46.215Z,99.99
2018-02-11T08:33:46.191Z,99.99
2018-02-11T08:34:46.163Z,99.99
2018-02-11T08:35:46.142Z,99.99
2018-02-11T08:36:46.118Z,99.99
2018-02-11T08:37:46.092Z,99.99
2018-02-11T08:38:46.071Z,99.99
2018-02-11T08:39:46.042Z,99.99
2018-02-11T08:40:46.020Z,99.99
2018-02-11T08:41:45.996Z,99.99
2018-02-11T08:42:45.984Z,99.99
2018-02-11T08:43:45.948Z,99.99
2018-02-11T08:44:45.924Z,99.99
2018-02-11T08:45:45.905Z,99.99
2018-02-11T08:46:45.877Z,99.99
2018-02-11T08:47:45.860Z,99.99
2018-02-11T08:48:45.829Z,99.99
2018-02-11T08:49:45.805Z,99.99
2018-02-11T08:50:45.782Z,99.99
2018-02-11T08:51:45.758Z,99.99
2018-02-11T08:52:45.734Z,99.99
2018-02-11T08:53:45.711Z,99.99
2018-02-11T08:54:45.681Z,99.99
2018-02-11T08:55:45.657Z,99.99
2018-02-11T08:56:45.637Z,99.99
2018-02-11T08:57:45.612Z,99.99
2018-02-11T08:58:45.588Z,99.99
2018-02-11T08:59:45.564Z,99.99
2018-02-11T09:00:45.542Z,99.99
2018-02-11T09:01:45.516Z,99.99
2018-02-11T09:02:45.494Z,99.99
2018-02-11T09:03:45.467Z,99.99
2018-02-11T09:04:45.444Z,99.99
2018-02-11T09:05:45.420Z,99.99
2018-02-11T09:06:45.397Z,99.99
2018-02-11T09:07:45.385Z,99.99
2018-02-11T09:08:45.347Z,99.99
2018-02-11T09:09:45.326Z,99.99
2018-02-11T09:10:45.304Z,99.99
2018-02-11T09:11:45.275Z,99.99
2018-02-11T09:12:45.258Z,99.99
2018-02-11T09:13:45.232Z,99.99
2018-02-11T09:14:45.208Z,99.99
2018-02-11T09:15:45.186Z,99.99
2018-02-11T09:16:45.163Z,99.99
2018-02-11T09:17:45.138Z,99.99
2018-02-11T09:18:45.116Z,99.99
2018-02-11T09:19:45.093Z,99.99
2018-02-11T09:20:45.067Z,99.99
2018-02-11T09:21:45.046Z,99.99
2018-02-11T09:22:45.025Z,99.99
2018-02-11T09:23:45.002Z,99.99
2018-02-11T09:24:44.976Z,99.99
2018-02-11T09:25:44.953Z,99.99
2018-02-11T09:26:44.930Z,99.99
2018-02-11T09:27:44.907Z,99.99
2018-02-11T09:28:44.883Z,99.99
2018-02-11T09:29:44.860Z,99.72
2018-02-11T09:30:44.839Z,99.99
2018-02-11T09:31:44.816Z,99.99
2018-02-11T09:32:44.826Z,99.91
2018-02-11T09:33:44.772Z,99.99
2018-02-11T09:34:44.749Z,99.99
2018-02-11T09:35:44.724Z,99.99
2018-02-11T09:36:44.699Z,99.99
2018-02-11T09:37:44.680Z,99.99
2018-02-11T09:38:44.656Z,99.99
2018-02-11T09:39:44.636Z,99.99
2018-02-11T09:40:44.612Z,99.99
2018-02-11T09:41:44.591Z,99.99
2018-02-11T09:42:44.566Z,99.87
2018-02-11T09:43:44.544Z,99.99
2018-02-11T09:44:44.520Z,99.77
2018-02-11T09:45:44.499Z,99.96
2018-02-11T09:46:44.477Z,99.99
2018-02-11T09:47:44.453Z,99.99
2018-02-11T09:48:44.431Z,99.99
2018-02-11T09:49:44.408Z,99.99
2018-02-11T09:50:44.387Z,99.68
2018-02-11T09:51:44.365Z,99.68
2018-02-11T09:52:44.341Z,99.87
2018-02-11T09:53:44.320Z,99.87
2018-02-11T09:54:44.298Z,99.87
2018-02-11T09:55:44.275Z,99.68
2018-02-11T09:56:44.252Z,99.99
2018-02-11T09:57:44.229Z,99.99
2018-02-11T09:58:44.207Z,99.99
2018-02-11T09:59:44.185Z,99.30
2018-02-11T10:00:44.163Z,99.49
2018-02-11T10:01:44.138Z,99.77
2018-02-11T10:02:44.119Z,98.82
2018-02-11T10:03:44.095Z,98.82
2018-02-11T10:04:44.108Z,98.73
2018-02-11T10:05:44.052Z,98.82
2018-02-11T10:06:44.027Z,98.16
2018-02-11T10:07:44.010Z,97.97
2018-02-11T10:08:43.986Z,97.97
2018-02-11T10:09:43.962Z,97.97
2018-02-11T10:10:43.942Z,97.88
2018-02-11T10:11:43.921Z,97.78
2018-02-11T10:12:43.899Z,97.55
2018-02-11T10:13:43.880Z,97.74
2018-02-11T10:14:43.855Z,97.59
2018-02-11T10:15:43.834Z,97.64
2018-02-11T10:16:43.813Z,97.02
2018-02-11T10:17:43.791Z,97.21
2018-02-11T10:18:43.768Z,97.26
2018-02-11T10:19:43.747Z,97.07
2018-02-11T10:20:43.729Z,96.88
2018-02-11T10:21:43.703Z,96.88
2018-02-11T10:22:43.683Z,97.07
2018-02-11T10:23:43.659Z,97.07
2018-02-11T10:24:43.633Z,96.69
2018-02-11T10:25:43.618Z,96.50
2018-02-11T10:26:43.599Z,96.03
2018-02-11T10:27:43.575Z,95.65
2018-02-11T10:28:43.559Z,95.74
2018-02-11T10:29:43.530Z,95.65
2018-02-11T10:30:43.513Z,96.12
2018-02-11T10:31:43.490Z,96.50
2018-02-11T10:32:43.466Z,96.69
2018-02-11T10:33:43.447Z,96.50
2018-02-11T10:34:43.434Z,96.59
2018-02-11T10:35:43.408Z,95.84
2018-02-11T10:36:43.383Z,95.93
2018-02-11T10:37:43.362Z,95.93
2018-02-11T10:38:43.342Z,96.12
2018-02-11T10:39:43.321Z,96.36
2018-02-11T10:40:43.303Z,96.59
2018-02-11T10:41:43.282Z,96.69
2018-02-11T10:42:43.257Z,97.07
2018-02-11T10:43:43.236Z,96.88
2018-02-11T10:44:43.215Z,97.02
2018-02-11T10:45:43.190Z,96.73
2018-02-11T10:46:43.175Z,96.64
2018-02-11T10:47:43.150Z,97.21
2018-02-11T10:48:43.130Z,96.55
2018-02-11T10:49:43.106Z,96.55
2018-02-11T10:50:43.087Z,96.55
2018-02-11T10:51:43.066Z,97.17
2018-02-11T10:52:43.044Z,97.55
2018-02-11T10:53:43.023Z,96.78
2018-02-11T10:54:43.001Z,96.59
2018-02-11T10:55:42.980Z,96.31
2018-02-11T10:56:42.956Z,96.50
2018-02-11T10:57:42.943Z,96.03
2018-02-11T10:58:42.916Z,96.03
2018-02-11T10:59:42.897Z,96.12
2018-02-11T11:00:42.873Z,95.93
2018-02-11T11:01:42.852Z,95.74
2018-02-11T11:02:42.830Z,95.74
2018-02-11T11:03:42.813Z,95.65
2018-02-11T11:04:42.788Z,96.03
2018-02-11T11:05:42.769Z,95.84
2018-02-11T11:06:42.747Z,95.93
2018-02-11T11:07:42.727Z,95.55
2018-02-11T11:08:42.705Z,95.07
2018-02-11T11:09:42.684Z,95.36
2018-02-11T11:10:42.663Z,95.55
2018-02-11T11:11:42.640Z,95.17
2018-02-11T11:12:42.629Z,95.07
2018-02-11T11:13:42.599Z,94.98
2018-02-11T11:14:42.581Z,94.89
2018-02-11T11:15:42.561Z,95.17
2018-02-11T11:16:42.537Z,95.36
2018-02-11T11:17:42.517Z,95.55
2018-02-11T11:18:42.497Z,95.93
2018-02-11T11:19:42.481Z,95.46
2018-02-11T11:20:42.455Z,95.46
2018-02-11T11:21:42.434Z,95.93
2018-02-11T11:22:42.420Z,95.93
2018-02-11T11:23:42.394Z,95.65
2018-02-11T11:24:42.372Z,95.84
2018-02-11T11:25:42.391Z,95.74
2018-02-11T11:26:42.331Z,95.74
2018-02-11T11:27:42.309Z,95.65
2018-02-11T11:28:42.290Z,95.93
2018-02-11T11:29:42.268Z,95.65
2018-02-11T11:30:42.249Z,96.12
2018-02-11T11:31:42.229Z,95.93
2018-02-11T11:32:42.206Z,95.65
2018-02-11T11:33:42.180Z,95.65
2018-02-11T11:34:42.165Z,95.46
2018-02-11T11:35:42.144Z,95.46
2018-02-11T11:36:42.125Z,95.84
2018-02-11T11:37:42.100Z,95.46
2018-02-11T11:38:42.121Z,95.65
2018-02-11T11:39:42.060Z,95.46
2018-02-11T11:40:42.040Z,96.12
2018-02-11T11:41:42.019Z,96.12
2018-02-11T11:42:41.998Z,95.65
2018-02-11T11:43:41.978Z,95.55
2018-02-11T11:44:41.954Z,95.84
2018-02-11T11:45:41.942Z,95.74
2018-02-11T11:46:41.915Z,95.65
2018-02-11T11:47:41.901Z,95.65
2018-02-11T11:48:41.872Z,96.03
2018-02-11T11:49:41.854Z,95.74
2018-02-11T11:50:41.834Z,95.46
2018-02-11T11:51:41.812Z,95.65
2018-02-11T11:52:41.790Z,95.84
2018-02-11T11:53:41.769Z,95.84
2018-02-11T11:54:41.749Z,95.17
2018-02-11T11:55:41.729Z,94.79
2018-02-11T11:56:41.708Z,94.79
2018-02-11T11:57:41.688Z,94.23
2018-02-11T11:58:41.669Z,94.32
2018-02-11T11:59:41.651Z,94.23
2018-02-11T12:00:41.627Z,94.23
2018-02-11T12:01:41.605Z,94.32
2018-02-11T12:02:41.588Z,94.51
2018-02-11T12:03:41.567Z,95.17
2018-02-11T12:04:41.552Z,95.27
2018-02-11T12:05:41.524Z,95.07
2018-02-11T12:06:41.503Z,95.36
2018-02-11T12:07:41.483Z,95.17
2018-02-11T12:08:41.461Z,95.36
2018-02-11T12:09:41.441Z,95.84
2018-02-11T12:10:41.421Z,96.73
2018-02-11T12:11:41.401Z,97.31
2018-02-11T12:12:41.380Z,97.59
2018-02-11T12:13:41.357Z,96.92
2018-02-11T12:14:41.336Z,97.50
2018-02-11T12:15:41.317Z,97.50
2018-02-11T12:16:41.293Z,97.88
2018-02-11T12:17:41.274Z,97.78
2018-02-11T12:18:41.252Z,98.68
2018-02-11T12:19:41.233Z,98.68
2018-02-11T12:20:41.209Z,98.49
2018-02-11T12:21:41.184Z,98.77
2018-02-11T12:22:41.283Z,98.54
2018-02-11T12:23:41.150Z,98.68
2018-02-11T12:24:41.122Z,98.77
2018-02-11T12:25:41.099Z,98.77
2018-02-11T12:26:41.077Z,98.58
2018-02-11T12:27:41.057Z,98.21
2018-02-11T12:28:41.037Z,98.68
2018-02-11T12:29:41.016Z,99.53
2018-02-11T12:30:40.990Z,99.25
2018-02-11T12:31:40.967Z,99.25
2018-02-11T12:32:40.999Z,98.68
2018-02-11T12:33:40.922Z,99.44
2018-02-11T12:34:40.910Z,99.34
2018-02-11T12:35:40.883Z,99.63
2018-02-11T12:36:40.857Z,99.44
2018-02-11T12:37:40.835Z,99.82
2018-02-11T12:38:40.815Z,99.99
2018-02-11T12:39:40.791Z,99.82
2018-02-11T12:40:40.768Z,99.99
2018-02-11T12:41:40.747Z,99.82
2018-02-11T12:42:40.725Z,99.99
2018-02-11T12:43:40.705Z,99.99
2018-02-11T12:44:40.683Z,99.99
2018-02-11T12:45:40.659Z,99.91
2018-02-11T12:46:40.633Z,99.99
2018-02-11T12:47:40.615Z,99.99
2018-02-11T12:48:40.592Z,99.99
2018-02-11T12:49:40.569Z,99.63
2018-02-11T12:50:40.547Z,99.63
2018-02-11T12:51:40.525Z,99.44
2018-02-11T12:52:40.503Z,99.99